Time;durP1;ratioP1;P1;durP2;ratioP2;P2;SDS_P1;SDS_P2;PMS_P1;PMS_P2;Temp;Humidity;BMP_temperature;BMP_pressure;BME280_temperature;BME280_humidity;BME280_pressure;Samples;Min_cycle;Max_cycle;Signal;HPM_P1;HPM_P2
2021/12/15 00:01:41;;;;;;;299.88;75.07;;;;;;;;;;5108278;27;20045;-86
2021/12/15 00:04:07;;;;;;;274.55;75.18;;;;;;;;;;5117604;27;20540;-86
2021/12/15 00:06:33;;;;;;;285.17;74.43;;;;;;;;;;5104789;27;20092;-86
2021/12/15 00:09:01;;;;;;;206.07;67.10;;;9.70;99.90;;;;;;5106466;27;20039;-86
2021/12/15 00:11:34;;;;;;;266.05;71.82;;;9.70;99.90;;;;;;5105171;27;20053;-86
2021/12/15 00:14:01;;;;;;;241.48;71.70;;;;;;;;;;5101739;27;20191;-86
2021/12/15 00:16:30;;;;;;;237.93;69.35;;;;;;;;;;5118272;27;20477;-86
2021/12/15 00:18:56;;;;;;;254.38;70.70;;;;;;;;;;5118434;27;20043;-86
2021/12/15 00:21:26;;;;;;;248.48;70.95;;;9.70;99.90;;;;;;5102044;27;20439;-86
2021/12/15 00:23:52;;;;;;;264.58;73.32;;;;;;;;;;5101225;27;20039;-86
2021/12/15 00:26:18;;;;;;;241.02;69.47;;;;;;;;;;5118637;27;20087;-86
2021/12/15 00:28:46;;;;;;;242.65;70.68;;;9.70;99.90;;;;;;5118815;27;20039;-86
2021/12/15 00:31:12;;;;;;;233.50;67.93;;;;;;;;;;5102029;27;20536;-86
2021/12/15 00:33:40;;;;;;;209.55;67.38;;;9.80;99.90;;;;;;5119304;27;20074;-86
2021/12/15 00:36:07;;;;;;;219.35;66.30;;;9.70;99.90;;;;;;5107639;27;20050;-86
2021/12/15 00:38:33;;;;;;;219.60;66.38;;;;;;;;;;5116216;27;20050;-86
2021/12/15 00:40:59;;;;;;;211.23;65.93;;;9.70;99.90;;;;;;5117941;27;20043;-86
2021/12/15 00:43:29;;;;;;;237.15;69.45;;;;;;;;;;5136098;27;20058;-86
2021/12/15 00:45:55;;;;;;;217.90;68.13;;;;;;;;;;5120152;27;20130;-86
2021/12/15 00:48:21;;;;;;;202.82;64.72;;;;;;;;;;5120469;27;20103;-86
2021/12/15 00:50:48;;;;;;;225.43;67.45;;;9.80;99.90;;;;;;5122334;27;20061;-86
2021/12/15 00:53:14;;;;;;;239.82;68.95;;;9.80;99.90;;;;;;5121834;27;20111;-86
2021/12/15 00:55:43;;;;;;;231.90;65.38;;;9.70;99.90;;;;;;5139504;27;20059;-86
2021/12/15 00:58:10;;;;;;;237.35;67.53;;;9.80;99.90;;;;;;5120159;27;20058;-86
2021/12/15 01:00:44;;;;;;;251.70;67.50;;;9.80;99.90;;;;;;5126112;27;20049;-86
2021/12/15 01:03:10;;;;;;;225.07;66.65;;;;;;;;;;5105512;28;20043;-86
2021/12/15 01:05:41;;;;;;;250.25;66.75;;;9.80;99.90;;;;;;5103611;27;20035;-86
2021/12/15 01:08:10;;;;;;;233.88;65.57;;;9.70;99.90;;;;;;5103362;27;20066;-86
2021/12/15 01:21:35;;;;;;;256.85;64.60;;;;;;;;;;5117730;27;20485;-85
2021/12/15 01:24:01;;;;;;;290.20;64.68;;;;;;;;;;5100479;27;20047;-85
2021/12/15 01:26:27;;;;;;;265.65;64.68;;;;;;;;;;5100620;27;20054;-86
2021/12/15 01:28:53;;;;;;;287.15;64.85;;;;;;;;;;5117664;27;20139;-86
2021/12/15 01:31:20;;;;;;;206.15;59.88;;;;;;;;;;5100493;27;20500;-86
2021/12/15 01:33:46;;;;;;;251.02;63.75;;;;;;;;;;5099752;27;20050;-86
2021/12/15 01:36:12;;;;;;;230.98;59.90;;;;;;;;;;5100484;27;20051;-86
2021/12/15 01:38:40;;;;;;;236.40;62.13;;;9.80;99.90;;;;;;5100118;27;20088;-86
2021/12/15 01:41:08;;;;;;;235.43;60.45;;;9.80;99.90;;;;;;5099582;27;20548;-86
2021/12/15 01:46:51;;;;;;;228.10;59.78;;;10.00;99.90;;;;;;5100270;28;20057;-86
2021/12/15 01:46:54;;;;;;;220.68;59.20;;;9.80;99.90;;;;;;5116523;27;20051;-86
2021/12/15 01:49:41;;;;;;;225.75;58.85;;;9.80;99.90;;;;;;5099868;27;20103;-86
2021/12/15 01:52:17;;;;;;;247.75;60.17;;;9.80;99.90;;;;;;5116488;27;20858;-86
2021/12/15 01:54:50;;;;;;;223.10;58.03;;;9.80;99.90;;;;;;5116094;28;20093;-86
2021/12/15 01:57:20;;;;;;;229.00;56.47;;;9.80;99.90;;;;;;5100016;28;20100;-85
2021/12/15 01:59:48;;;;;;;205.43;54.65;;;9.80;99.90;;;;;;5099577;28;20043;-86
2021/12/15 02:02:16;;;;;;;207.68;54.90;;;9.80;99.90;;;;;;5099049;28;20400;-86
2021/12/15 02:04:42;;;;;;;220.40;55.10;;;;;;;;;;5099602;28;20058;-85
2021/12/15 02:07:12;;;;;;;228.85;55.15;;;9.80;99.90;;;;;;5099869;28;20103;-85
2021/12/15 02:12:04;;;;;;;214.00;54.10;;;;;;;;;;5116854;28;20047;-86
2021/12/15 02:14:33;;;;;;;201.05;52.83;;;;;;;;;;5099892;27;20055;-86
2021/12/15 02:16:59;;;;;;;202.48;52.83;;;9.80;99.90;;;;;;5102356;27;20047;-86
2021/12/15 02:19:26;;;;;;;199.50;53.30;;;9.80;99.90;;;;;;5103482;27;20047;-86
2021/12/15 02:21:53;;;;;;;198.77;51.90;;;;;;;;;;5103754;27;20039;-86
2021/12/15 02:24:19;;;;;;;189.77;51.95;;;;;;;;;;5103627;27;20392;-86
2021/12/15 02:26:50;;;;;;;186.02;49.97;;;;;;;;;;5103738;27;20096;-86
2021/12/15 02:29:19;;;;;;;187.13;51.58;;;;;;;;;;5120513;27;20125;-86
2021/12/15 02:34:33;;;;;;;165.52;48.65;;;9.80;99.90;;;;;;5120542;27;20052;-86
2021/12/15 02:37:16;;;;;;;198.57;52.03;;;9.80;99.90;;;;;;5120086;27;20441;-86
2021/12/15 02:39:54;;;;;;;191.15;50.67;;;9.70;99.90;;;;;;5103177;27;20072;-86
2021/12/15 02:42:23;;;;;;;170.68;50.28;;;9.70;99.90;;;;;;5102958;27;20686;-85
2021/12/15 02:44:49;;;;;;;176.32;49.17;;;;;;;;;;5103054;27;20059;-86
2021/12/15 02:47:22;;;;;;;176.18;50.20;;;9.70;99.90;;;;;;5103249;27;20031;-86
2021/12/15 02:49:51;;;;;;;181.57;50.58;;;9.70;99.90;;;;;;5137158;27;20047;-85
2021/12/15 02:52:18;;;;;;;177.77;50.80;;;9.80;99.90;;;;;;5102970;27;20115;-86
2021/12/15 02:54:44;;;;;;;166.30;49.50;;;;;;;;;;5102500;27;20062;-86
2021/12/15 02:57:12;;;;;;;175.43;50.05;;;;;;;;;;5102582;27;20054;-86
2021/12/15 03:05:20;;;;;;;151.85;47.67;;;;;;;;;;5078085;27;20401;-86
2021/12/15 03:08:00;;;;;;;154.90;47.67;;;;;;;;;;5119596;27;20500;-86
2021/12/15 03:15:55;;;;;;;177.60;52.65;;;;;;;;;;5119458;27;20066;-86
2021/12/15 03:18:24;;;;;;;173.18;51.78;;;9.70;99.90;;;;;;5119516;27;20043;-86
2021/12/15 03:20:57;;;;;;;191.73;54.17;;;9.70;99.90;;;;;;5102775;27;20100;-86
2021/12/15 03:23:51;;;;;;;186.65;52.83;;;9.70;99.90;;;;;;5102858;27;20078;-86
2021/12/15 03:26:22;;;;;;;188.88;53.45;;;9.60;99.90;;;;;;5118597;27;20039;-86
2021/12/15 03:39:28;;;;;;;203.23;55.58;;;9.70;99.90;;;;;;5136865;27;20051;-86
2021/12/15 03:42:03;;;;;;;210.93;57.70;;;9.70;99.90;;;;;;5102116;27;20039;-85
2021/12/15 03:44:32;;;;;;;211.55;57.38;;;9.70;99.90;;;;;;5101931;27;20079;-87
2021/12/15 03:46:58;;;;;;;189.10;56.15;;;;;;;;;;5102003;27;20121;-85
2021/12/15 03:49:25;;;;;;;209.80;57.92;;;;;;;;;;5101291;27;20054;-86
2021/12/15 03:51:51;;;;;;;199.20;56.05;;;;;;;;;;5136839;27;20047;-86
2021/12/15 03:54:18;;;;;;;218.10;56.85;;;;;;;;;;5100875;27;20055;-85
2021/12/15 03:56:47;;;;;;;205.25;57.72;;;9.70;99.90;;;;;;5101168;27;20042;-83
2021/12/15 03:59:13;;;;;;;204.52;58.65;;;;;;;;;;5101287;27;20159;-83
2021/12/15 04:01:40;;;;;;;226.70;60.17;;;;;;;;;;5101940;27;20126;-84
2021/12/15 04:04:09;;;;;;;198.73;58.85;;;9.70;99.90;;;;;;5101680;27;20074;-84
2021/12/15 04:06:37;;;;;;;207.25;59.20;;;9.70;99.90;;;;;;5117842;27;20047;-83
2021/12/15 04:09:07;;;;;;;197.48;61.10;;;9.70;99.90;;;;;;5101251;27;20503;-86
2021/12/15 04:11:35;;;;;;;203.02;58.00;;;9.70;99.90;;;;;;5118315;27;20462;-85
2021/12/15 04:14:03;;;;;;;208.23;61.20;;;9.70;99.90;;;;;;5101514;27;20039;-85
2021/12/15 04:18:56;;;;;;;202.80;60.53;;;;;;;;;;5137273;27;20079;-86
2021/12/15 04:21:25;;;;;;;224.07;64.72;;;;;;;;;;5101299;27;20064;-86
2021/12/15 04:23:53;;;;;;;203.10;61.90;;;9.60;99.90;;;;;;5101484;27;20138;-85
2021/12/15 04:26:19;;;;;;;210.15;64.05;;;;;;;;;;5101292;27;20035;-86
2021/12/15 04:28:45;;;;;;;217.93;63.60;;;;;;;;;;5101618;27;20046;-85
2021/12/15 04:31:15;;;;;;;205.77;62.83;;;9.70;99.90;;;;;;5118617;27;20074;-86
2021/12/15 04:33:51;;;;;;;222.30;65.65;;;9.70;99.90;;;;;;5101154;27;20035;-86
2021/12/15 04:36:17;;;;;;;202.73;62.72;;;9.70;99.90;;;;;;5101287;27;20043;-86
2021/12/15 04:38:44;;;;;;;229.80;65.18;;;9.70;99.90;;;;;;5116941;27;20040;-86
2021/12/15 04:41:19;;;;;;;224.07;67.25;;;9.70;99.90;;;;;;5100980;27;20758;-86
2021/12/15 04:43:55;;;;;;;203.80;64.53;;;9.40;99.90;;;;;;5100914;27;20492;-86
2021/12/15 04:46:23;;;;;;;232.57;67.95;;;9.60;99.90;;;;;;5135964;27;20575;-86
2021/12/15 04:48:49;;;;;;;221.23;68.20;;;;;;;;;;5100492;27;20525;-86
2021/12/15 04:51:18;;;;;;;217.52;68.18;;;;;;;;;;5101294;27;20130;-86
2021/12/15 04:53:46;;;;;;;223.07;68.22;;;9.60;99.90;;;;;;5100390;27;20485;-86
2021/12/15 04:56:12;;;;;;;209.55;67.45;;;;;;;;;;5099936;27;20108;-86
2021/12/15 04:58:38;;;;;;;209.27;65.88;;;;;;;;;;5135267;27;20130;-86
2021/12/15 05:01:07;;;;;;;223.05;69.10;;;9.80;99.90;;;;;;5099763;27;20511;-86
2021/12/15 05:03:33;;;;;;;216.75;69.18;;;;;;;;;;5099679;27;20108;-86
2021/12/15 05:06:00;;;;;;;212.60;68.45;;;;;;;;;;5099606;27;20055;-86
2021/12/15 05:08:26;;;;;;;203.73;67.03;;;;;;;;;;5099762;27;20039;-86
2021/12/15 05:10:55;;;;;;;204.07;68.13;;;;;;;;;;5099883;27;20541;-87
2021/12/15 05:13:21;;;;;;;213.90;69.05;;;;;;;;;;5099879;27;20054;-86
2021/12/15 05:15:47;;;;;;;207.80;69.65;;;;;;;;;;5099672;27;20138;-87
2021/12/15 05:18:14;;;;;;;206.32;68.60;;;;;;;;;;5116904;27;20424;-86
2021/12/15 05:20:45;;;;;;;214.77;68.13;;;9.60;99.90;;;;;;5099960;27;20043;-86
2021/12/15 05:23:14;;;;;;;203.85;68.55;;;;;;;;;;5100124;27;20503;-86
2021/12/15 05:25:40;;;;;;;213.40;68.25;;;;;;;;;;5100009;27;20092;-86
2021/12/15 05:28:06;;;;;;;201.18;70.30;;;;;;;;;;5100018;27;20499;-86
2021/12/15 05:30:33;;;;;;;199.75;70.07;;;;;;;;;;5100313;27;20067;-86
2021/12/15 05:32:59;;;;;;;207.32;70.10;;;;;;;;;;5100240;27;20039;-85
2021/12/15 05:35:26;;;;;;;198.80;71.18;;;9.60;99.90;;;;;;5099467;27;20039;-86
2021/12/15 05:37:57;;;;;;;205.13;69.68;;;9.60;99.90;;;;;;5099324;27;20047;-86
2021/12/15 05:40:24;;;;;;;207.52;71.32;;;9.70;99.90;;;;;;5099695;27;20043;-86
2021/12/15 05:42:50;;;;;;;205.52;71.30;;;;;;;;;;5115712;27;20080;-86
2021/12/15 05:45:17;;;;;;;198.60;69.72;;;;;;;;;;5116519;27;20055;-86
2021/12/15 05:47:43;;;;;;;196.90;69.88;;;9.60;99.90;;;;;;5116697;27;20043;-86
2021/12/15 05:50:12;;;;;;;201.90;71.80;;;9.60;99.90;;;;;;5099470;27;20039;-87
2021/12/15 05:52:39;;;;;;;202.30;71.55;;;9.60;99.90;;;;;;5099636;28;20043;-86
2021/12/15 05:55:08;;;;;;;196.65;70.82;;;9.60;99.90;;;;;;5100049;28;20493;-87
2021/12/15 05:57:34;;;;;;;184.95;69.68;;;;;;;;;;5099936;28;20050;-87
2021/12/15 06:00:06;;;;;;;204.95;73.80;;;9.50;99.90;;;;;;5117072;28;20088;-85
2021/12/15 06:02:32;;;;;;;197.90;71.60;;;;;;;;;;5099769;28;20039;-87
2021/12/15 06:04:58;;;;;;;194.50;70.72;;;;;;;;;;5099568;28;20049;-86
2021/12/15 06:07:24;;;;;;;185.88;68.38;;;;;;;;;;5100005;28;20046;-87
2021/12/15 06:09:50;;;;;;;189.32;69.65;;;;;;;;;;5100964;28;20051;-85
2021/12/15 06:12:17;;;;;;;189.65;71.13;;;;;;;;;;5104719;28;20043;-85
2021/12/15 06:14:43;;;;;;;187.80;71.43;;;;;;;;;;5097629;28;20047;-86
2021/12/15 06:17:11;;;;;;;191.32;69.85;;;9.60;99.90;;;;;;5099430;28;20043;-86
2021/12/15 06:19:38;;;;;;;194.32;70.97;;;;;;;;;;5099175;28;20043;-86
2021/12/15 06:22:05;;;;;;;191.10;69.45;;;9.60;99.90;;;;;;5095841;28;20561;-86
2021/12/15 06:24:31;;;;;;;189.70;72.53;;;;;;;;;;5078533;28;20040;-87
2021/12/15 06:27:07;;;;;;;199.25;72.22;;;;;;;;;;5096368;28;20397;-86
2021/12/15 06:29:33;;;;;;;208.57;73.72;;;;;;;;;;5078322;28;20130;-85
2021/12/15 06:32:00;;;;;;;195.05;71.35;;;;;;;;;;5087900;28;20090;-86
2021/12/15 06:34:26;;;;;;;194.77;71.45;;;;;;;;;;5096246;28;20181;-86
2021/12/15 06:36:53;;;;;;;181.73;69.80;;;;;;;;;;5095096;28;20127;-86
2021/12/15 06:39:19;;;;;;;197.40;71.03;;;;;;;;;;5095051;28;20052;-86
2021/12/15 06:41:45;;;;;;;188.00;72.55;;;;;;;;;;5095668;28;20047;-86
2021/12/15 06:44:13;;;;;;;185.02;68.85;;;;;;;;;;5096234;28;20040;-86
2021/12/15 06:58:11;;;;;;;186.20;68.32;;;;;;;;;;5096922;28;20101;-86
2021/12/15 07:00:23;;;;;;;182.82;69.35;;;9.60;99.90;;;;;;5097715;28;20138;-86
2021/12/15 07:02:50;;;;;;;180.60;67.35;;;;;;;;;;5100234;28;20086;-86
2021/12/15 07:05:17;;;;;;;180.85;69.07;;;9.60;99.90;;;;;;5101773;28;20390;-86
2021/12/15 07:07:45;;;;;;;187.95;67.65;;;9.70;99.90;;;;;;5090697;28;20055;-86
2021/12/15 07:10:14;;;;;;;182.80;66.70;;;9.70;99.90;;;;;;5086746;28;20087;-86
2021/12/15 07:12:40;;;;;;;183.07;68.22;;;;;;;;;;5104776;28;20039;-86
2021/12/15 07:15:08;;;;;;;179.77;68.13;;;9.70;99.90;;;;;;5086379;28;20047;-86
2021/12/15 07:17:36;;;;;;;188.50;66.63;;;;;;;;;;5088881;28;20058;-86
2021/12/15 07:20:08;;;;;;;178.63;65.88;;;9.70;99.90;;;;;;5093421;28;20116;-86
2021/12/15 07:25:06;;;;;;;176.43;65.25;;;9.70;99.90;;;;;;5119592;28;20034;-86
2021/12/15 07:27:32;;;;;;;183.15;66.35;;;;;;;;;;5120590;28;20030;-86
2021/12/15 07:29:58;;;;;;;170.05;64.30;;;;;;;;;;5102087;28;20044;-86
2021/12/15 07:32:24;;;;;;;171.95;64.18;;;;;;;;;;5118627;28;20054;-86
2021/12/15 07:34:53;;;;;;;171.43;64.10;;;9.70;99.90;;;;;;5099564;28;20055;-87
2021/12/15 07:37:20;;;;;;;177.60;65.15;;;;;;;;;;5100664;28;20051;-87
2021/12/15 07:39:54;;;;;;;171.25;64.43;;;;;;;;;;5097551;28;20043;-87
2021/12/15 07:42:30;;;;;;;178.17;64.20;;;;;;;;;;5092282;28;20059;-87
2021/12/15 07:44:56;;;;;;;170.65;62.95;;;;;;;;;;5092544;28;20036;-87
2021/12/15 07:47:22;;;;;;;176.27;65.53;;;;;;;;;;5084873;28;20071;-88
2021/12/15 07:49:48;;;;;;;180.35;64.20;;;;;;;;;;5086480;28;20043;-86
2021/12/15 07:52:15;;;;;;;177.43;65.50;;;;;;;;;;5085448;28;20093;-87
2021/12/15 07:54:41;;;;;;;176.88;63.15;;;;;;;;;;5082902;28;20093;-87
2021/12/15 07:57:11;;;;;;;173.60;64.82;;;9.70;99.90;;;;;;5083069;28;20455;-86
2021/12/15 07:59:37;;;;;;;164.93;62.95;;;9.70;99.90;;;;;;5083297;28;20109;-87
2021/12/15 08:02:04;;;;;;;166.05;63.42;;;;;;;;;;5083205;28;20043;-86
2021/12/15 08:04:30;;;;;;;176.75;63.75;;;;;;;;;;5082907;28;20051;-86
2021/12/15 08:06:59;;;;;;;164.20;61.95;;;;;;;;;;5082767;28;20444;-86
2021/12/15 08:09:29;;;;;;;174.60;61.88;;;9.70;99.90;;;;;;5082273;28;20040;-87
2021/12/15 08:11:55;;;;;;;171.43;61.50;;;;;;;;;;5081924;28;20161;-87
2021/12/15 08:14:21;;;;;;;170.25;61.80;;;;;;;;;;5081924;28;20047;-87
2021/12/15 08:16:47;;;;;;;158.55;61.03;;;;;;;;;;5081797;28;20051;-87
2021/12/15 08:19:16;;;;;;;162.98;60.80;;;;;;;;;;5081416;28;20031;-86
2021/12/15 08:21:42;;;;;;;161.43;59.83;;;9.80;99.90;;;;;;5081405;28;20043;-87
2021/12/15 08:24:09;;;;;;;157.07;59.72;;;;;;;;;;5080735;28;20090;-87
2021/12/15 08:26:35;;;;;;;166.68;61.80;;;;;;;;;;5081381;28;20048;-87
2021/12/15 08:29:01;;;;;;;157.85;61.10;;;;;;;;;;5080053;28;20134;-86
2021/12/15 08:31:27;;;;;;;164.93;59.15;;;;;;;;;;5081310;28;20749;-87
2021/12/15 08:33:54;;;;;;;162.93;60.50;;;;;;;;;;5081757;28;20595;-87
2021/12/15 08:36:20;;;;;;;153.65;59.83;;;;;;;;;;5081571;28;20069;-87
2021/12/15 08:38:48;;;;;;;156.13;59.20;;;9.80;99.90;;;;;;5081789;28;20378;-86
2021/12/15 08:41:22;;;;;;;161.38;60.08;;;9.80;99.90;;;;;;5098458;28;20504;-86
2021/12/15 08:43:48;;;;;;;158.77;58.67;;;;;;;;;;5098249;28;20055;-86
2021/12/15 08:46:22;;;;;;;162.48;59.78;;;9.90;99.90;;;;;;5081049;28;20131;-85
2021/12/15 08:48:48;;;;;;;160.23;60.00;;;9.90;99.90;;;;;;5098073;28;20047;-85
2021/12/15 08:51:17;;;;;;;146.82;57.17;;;9.80;99.90;;;;;;5081300;28;20035;-86
2021/12/15 08:53:44;;;;;;;149.15;57.95;;;9.80;99.90;;;;;;5080616;28;20039;-86
2021/12/15 08:56:11;;;;;;;152.23;58.75;;;9.80;99.90;;;;;;5097469;28;20549;-86
2021/12/15 08:58:40;;;;;;;156.18;57.83;;;;;;;;;;5098114;28;20488;-86
2021/12/15 09:01:07;;;;;;;157.57;57.85;;;9.90;99.90;;;;;;5081488;28;20388;-86
2021/12/15 09:03:34;;;;;;;151.77;59.33;;;;;;;;;;5080311;28;20134;-86
2021/12/15 09:06:01;;;;;;;152.85;57.65;;;9.90;99.90;;;;;;5080961;28;20043;-85
2021/12/15 09:08:27;;;;;;;145.02;56.75;;;9.90;99.90;;;;;;5096988;28;20088;-86
2021/12/15 09:10:58;;;;;;;139.70;56.83;;;9.90;99.90;;;;;;5097229;28;20051;-86
2021/12/15 09:13:30;;;;;;;151.13;57.55;;;9.90;99.90;;;;;;5097899;28;20047;-86
2021/12/15 09:15:57;;;;;;;146.88;56.28;;;10.00;99.90;;;;;;5081260;28;20040;-86
2021/12/15 09:18:23;;;;;;;149.63;56.72;;;;;;;;;;5080436;28;20128;-87
2021/12/15 09:20:49;;;;;;;154.10;57.60;;;;;;;;;;5080573;28;20043;-87
2021/12/15 09:23:17;;;;;;;144.93;55.72;;;10.00;99.90;;;;;;5080343;28;20043;-86
2021/12/15 09:25:44;;;;;;;143.63;55.83;;;;;;;;;;5079857;28;20043;-86
2021/12/15 09:28:13;;;;;;;133.25;54.47;;;;;;;;;;5079956;28;20039;-86
2021/12/15 09:30:44;;;;;;;137.38;55.47;;;10.00;99.90;;;;;;5079987;28;20066;-86
2021/12/15 09:33:16;;;;;;;141.68;55.20;;;13.00;99.90;;;;;;5080346;28;20727;-86
2021/12/15 09:35:42;;;;;;;138.68;54.30;;;;;;;;;;5079728;28;20056;-86
2021/12/15 09:38:09;;;;;;;136.00;53.50;;;;;;;;;;5079826;28;20040;-86
2021/12/15 09:40:35;;;;;;;138.77;54.70;;;;;;;;;;5096841;28;20043;-85
2021/12/15 09:43:03;;;;;;;135.73;53.90;;;;;;;;;;5096452;28;20040;-85
2021/12/15 10:04:21;;;;;;;126.05;50.42;;;;;;;;;;5096294;28;20138;-85
2021/12/15 10:17:25;;;;;;;122.35;49.47;;;10.30;99.90;;;;;;5096574;28;20055;-85
2021/12/15 10:18:16;;;;;;;113.10;48.47;;;10.30;99.90;;;;;;5096902;28;20055;-85
2021/12/15 10:20:43;;;;;;;114.93;49.25;;;;;;;;;;5098638;28;20043;-85
2021/12/15 10:23:15;;;;;;;116.97;49.38;;;10.40;99.90;;;;;;5096613;28;20197;-85
2021/12/15 10:25:49;;;;;;;126.47;49.30;;;10.30;99.90;;;;;;5095602;28;20501;-85
2021/12/15 10:28:22;;;;;;;111.07;48.60;;;10.40;99.90;;;;;;5096567;28;20044;-84
2021/12/15 10:30:55;;;;;;;114.88;47.90;;;10.40;99.90;;;;;;5105287;28;20050;-85
2021/12/15 10:33:28;;;;;;;115.90;48.00;;;10.00;99.90;;;;;;5096259;28;20048;-85
2021/12/15 10:36:06;;;;;;;114.88;47.03;;;10.40;99.90;;;;;;5095949;28;20427;-85
2021/12/15 10:38:43;;;;;;;119.47;47.72;;;10.40;99.90;;;;;;5099837;28;20035;-85
2021/12/15 10:41:21;;;;;;;114.63;46.80;;;10.30;99.90;;;;;;5099671;28;20044;-85
2021/12/15 10:43:58;;;;;;;117.53;48.08;;;10.30;99.90;;;;;;5082252;28;20096;-85
2021/12/15 10:46:33;;;;;;;116.10;48.53;;;10.30;99.90;;;;;;5082192;28;20520;-85
2021/12/15 10:49:08;;;;;;;118.40;47.13;;;10.30;99.90;;;;;;5099056;28;20051;-85
2021/12/15 10:51:47;;;;;;;116.93;47.30;;;10.30;99.90;;;;;;5082289;28;20565;-85
2021/12/15 10:54:34;;;;;;;102.57;45.58;;;10.30;99.90;;;;;;5082398;28;20047;-84
2021/12/15 10:57:17;;;;;;;108.68;45.13;;;10.30;99.90;;;;;;5117735;28;20056;-85
2021/12/15 10:59:50;;;;;;;106.35;45.25;;;10.30;99.90;;;;;;5082537;28;20481;-85
2021/12/15 11:02:27;;;;;;;105.82;44.33;;;10.30;99.90;;;;;;5082434;28;20043;-85
2021/12/15 11:04:55;;;;;;;103.38;44.03;;;;;;;;;;5098583;28;20059;-84
2021/12/15 11:07:24;;;;;;;98.80;43.40;;;10.40;99.90;;;;;;5082031;28;20058;-85
2021/12/15 11:09:55;;;;;;;99.07;43.75;;;10.40;99.90;;;;;;5087236;28;20050;-85
2021/12/15 11:12:33;;;;;;;88.70;42.63;;;10.40;99.90;;;;;;5098477;28;20130;-85
2021/12/15 11:15:06;;;;;;;88.38;41.22;;;10.50;99.90;;;;;;5116573;28;20047;-85
2021/12/15 11:17:40;;;;;;;97.43;41.67;;;10.50;99.90;;;;;;5099052;28;20106;-85
2021/12/15 11:20:11;;;;;;;89.22;39.92;;;10.60;99.90;;;;;;5098236;28;20691;-85
2021/12/15 11:23:02;;;;;;;85.85;40.30;;;10.60;99.90;;;;;;5098601;28;20139;-85
2021/12/15 11:25:33;;;;;;;77.88;37.85;;;10.50;99.90;;;;;;5081503;28;20052;-85
2021/12/15 11:28:33;;;;;;;73.60;36.33;;;10.80;99.90;;;;;;5115577;28;20095;-85
2021/12/15 11:31:17;;;;;;;67.30;34.65;;;8.40;99.90;;;;;;5098875;28;20588;-85
2021/12/15 11:33:49;;;;;;;71.78;35.60;;;10.70;99.90;;;;;;5116605;28;20142;-85
2021/12/15 11:36:18;;;;;;;67.70;33.83;;;10.70;99.90;;;;;;5098513;28;20039;-85
2021/12/15 11:38:56;;;;;;;66.35;34.78;;;10.70;99.90;;;;;;5098240;28;20055;-85
2021/12/15 11:41:23;;;;;;;69.20;34.53;;;10.70;99.90;;;;;;5081389;28;20039;-84
2021/12/15 11:43:54;;;;;;;68.88;35.10;;;11.20;99.90;;;;;;5097811;28;20051;-85
2021/12/15 11:46:31;;;;;;;70.72;34.70;;;10.80;99.90;;;;;;5098357;28;20059;-84
2021/12/15 11:48:57;;;;;;;64.70;34.05;;;;;;;;;;5116714;28;20050;-85
2021/12/15 11:51:54;;;;;;;62.83;33.17;;;10.90;99.90;;;;;;5098256;28;20044;-85
2021/12/15 11:54:46;;;;;;;67.47;34.13;;;10.80;99.90;;;;;;5091607;28;20062;-86
2021/12/15 11:57:22;;;;;;;67.45;33.75;;;11.30;99.90;;;;;;5099129;28;20188;-85
2021/12/15 11:59:55;;;;;;;71.65;34.25;;;10.80;99.90;;;;;;5100782;28;20077;-85
2021/12/15 12:02:31;;;;;;;67.95;33.97;;;10.80;99.90;;;;;;5084619;28;20493;-84
2021/12/15 12:05:03;;;;;;;68.93;32.85;;;10.80;99.90;;;;;;5085322;28;20047;-85
2021/12/15 12:07:33;;;;;;;70.43;34.17;;;10.80;99.90;;;;;;5085951;28;20124;-86
2021/12/15 12:10:19;;;;;;;71.72;34.33;;;10.80;99.90;;;;;;5085852;28;20048;-85
2021/12/15 12:12:52;;;;;;;64.60;33.70;;;10.70;99.90;;;;;;5101663;28;20052;-85
2021/12/15 12:15:21;;;;;;;65.97;32.35;;;10.70;99.90;;;;;;5103421;28;20051;-85
2021/12/15 12:17:49;;;;;;;68.50;33.20;;;10.70;99.90;;;;;;5085323;28;20054;-84
2021/12/15 12:20:19;;;;;;;71.38;34.95;;;10.70;99.90;;;;;;5084220;28;20154;-84
2021/12/15 12:22:49;;;;;;;63.25;32.80;;;10.70;99.90;;;;;;5100622;28;20047;-85
2021/12/15 12:25:20;;;;;;;59.75;33.28;;;10.70;99.90;;;;;;5099572;28;20051;-85
2021/12/15 12:27:47;;;;;;;62.05;32.05;;;10.70;99.90;;;;;;5083015;28;20512;-85
2021/12/15 12:30:30;;;;;;;59.95;30.85;;;10.80;99.90;;;;;;5083164;28;20135;-85
2021/12/15 12:32:57;;;;;;;54.70;29.52;;;10.80;99.90;;;;;;5098257;28;20485;-85
2021/12/15 12:35:28;;;;;;;57.00;28.65;;;10.80;99.90;;;;;;5097993;28;20047;-85
2021/12/15 12:37:59;;;;;;;53.15;27.85;;;10.80;99.90;;;;;;5081331;28;20047;-85
2021/12/15 12:40:39;;;;;;;47.38;26.27;;;11.20;99.90;;;;;;5097166;28;20071;-85
2021/12/15 12:43:30;;;;;;;46.28;24.98;;;11.00;99.90;;;;;;5115783;28;20485;-85
2021/12/15 12:46:09;;;;;;;48.97;26.17;;;10.80;99.90;;;;;;5097652;27;20087;-85
2021/12/15 12:48:57;;;;;;;50.38;25.85;;;10.90;99.90;;;;;;5103088;27;20415;-85
2021/12/15 13:00:04;;;;;;;40.72;23.10;;;13.90;99.90;;;;;;5118236;27;20108;-85
2021/12/15 13:02:40;;;;;;;44.05;22.05;;;10.80;99.90;;;;;;5084381;28;20104;-85
2021/12/15 13:05:24;;;;;;;43.45;22.95;;;12.90;99.90;;;;;;5101626;28;20043;-85
2021/12/15 13:07:57;;;;;;;43.15;22.73;;;10.70;99.90;;;;;;5067185;28;20138;-85
2021/12/15 13:10:47;;;;;;;38.60;21.15;;;10.90;99.90;;;;;;5098464;28;20052;-85
2021/12/15 13:13:51;;;;;;;36.15;20.95;;;10.70;99.90;;;;;;5098546;28;20043;-85
2021/12/15 13:16:35;;;;;;;36.70;20.65;;;14.30;99.90;;;;;;5069549;28;20181;-85
2021/12/15 13:19:14;;;;;;;37.95;20.70;;;10.70;99.90;;;;;;5097925;28;20071;-85
2021/12/15 13:21:42;;;;;;;41.65;21.20;;;10.80;99.90;;;;;;5097414;28;20532;-86
2021/12/15 13:30:34;;;;;;;33.80;21.55;;;;;;;;;;5097267;28;20464;-85
2021/12/15 13:33:10;;;;;;;37.25;21.02;;;;;;;;;;5114362;28;20054;-85
2021/12/15 13:35:41;;;;;;;36.08;20.90;;;10.70;99.90;;;;;;5079541;28;20084;-86
2021/12/15 13:38:07;;;;;;;43.22;21.98;;;12.80;99.90;;;;;;5097019;28;20105;-85
2021/12/15 13:40:55;;;;;;;38.42;20.98;;;10.40;99.90;;;;;;5096382;28;20047;-86
2021/12/15 13:43:43;;;;;;;37.47;21.42;;;10.70;99.90;;;;;;5094971;28;20089;-86
2021/12/15 13:46:31;;;;;;;35.85;21.00;;;11.00;99.90;;;;;;5114933;28;20039;-86
2021/12/15 13:49:04;;;;;;;40.25;19.90;;;10.60;99.90;;;;;;5097197;28;20197;-85
2021/12/15 13:51:53;;;;;;;41.50;18.45;;;10.60;99.90;;;;;;5096620;28;20664;-86
2021/12/15 13:54:45;;;;;;;38.22;18.73;;;10.50;99.90;;;;;;5079828;28;20513;-84
2021/12/15 13:57:14;;;;;;;31.02;16.88;;;10.50;99.90;;;;;;5080297;28;20424;-85
2021/12/15 13:59:51;;;;;;;29.48;16.02;;;10.60;99.90;;;;;;5079937;28;20078;-85
2021/12/15 14:02:56;;;;;;;31.83;16.77;;;10.50;99.90;;;;;;5079917;28;20142;-85
2021/12/15 14:05:40;;;;;;;28.65;15.95;;;10.50;99.90;;;;;;5113573;28;20055;-85
2021/12/15 14:08:17;;;;;;;27.08;16.00;;;10.50;99.90;;;;;;5079915;28;20047;-85
2021/12/15 14:10:54;;;;;;;30.90;13.63;;;10.50;99.90;;;;;;5079862;28;20043;-85
2021/12/15 14:13:20;;;;;;;18.35;10.55;;;;;;;;;;5084068;28;20044;-85
2021/12/15 14:15:48;;;;;;;18.85;10.45;;;10.50;99.90;;;;;;5100323;28;20044;-85
2021/12/15 14:18:33;;;;;;;20.30;10.52;;;10.30;99.90;;;;;;5100853;28;20054;-85
2021/12/15 14:21:17;;;;;;;23.92;11.20;;;10.50;99.90;;;;;;5075994;27;20073;-85
2021/12/15 14:23:49;;;;;;;18.30;10.38;;;10.40;99.90;;;;;;5104334;27;20438;-85
2021/12/15 14:26:20;;;;;;;18.00;8.60;;;10.50;99.90;;;;;;5104126;27;20043;-84
2021/12/15 14:28:54;;;;;;;15.45;7.72;;;10.40;99.90;;;;;;5104375;27;20514;-85
2021/12/15 14:31:26;;;;;;;15.88;8.07;;;10.40;99.90;;;;;;5103758;27;20076;-85
2021/12/15 14:34:03;;;;;;;15.07;7.80;;;10.40;99.90;;;;;;5103620;27;20035;-85
2021/12/15 14:36:36;;;;;;;13.65;7.22;;;10.30;99.90;;;;;;5139275;27;20043;-85
2021/12/15 14:39:09;;;;;;;16.45;7.38;;;10.00;99.90;;;;;;5104064;27;20079;-85
2021/12/15 14:41:39;;;;;;;18.17;7.63;;;10.30;99.90;;;;;;5103717;27;20400;-85
2021/12/15 14:44:23;;;;;;;15.15;7.70;;;10.20;99.90;;;;;;5139146;27;20136;-85
2021/12/15 14:46:51;;;;;;;18.45;7.55;;;10.30;99.90;;;;;;5103816;27;20130;-85
2021/12/15 14:49:27;;;;;;;16.75;7.80;;;10.20;99.90;;;;;;5120370;27;20043;-85
2021/12/15 14:51:57;;;;;;;17.38;7.63;;;10.20;99.90;;;;;;5103054;27;20103;-85
2021/12/15 14:54:27;;;;;;;15.32;7.78;;;10.20;99.90;;;;;;5118940;27;20066;-84
2021/12/15 14:57:04;;;;;;;17.90;7.75;;;10.10;99.90;;;;;;5103110;27;20054;-85
2021/12/15 14:59:30;;;;;;;19.23;7.57;;;;;;;;;;5120432;27;20054;-85